Time;durP1;ratioP1;P1;durP2;ratioP2;P2;SDS_P1;SDS_P2;PMS_P1;PMS_P2;Temp;Humidity;BMP_temperature;BMP_pressure;BME280_temperature;BME280_humidity;BME280_pressure;Samples;Min_cycle;Max_cycle;Signal;HPM_P1;HPM_P2
2022/02/28 06:47:20;;;;;;;6.60;4.28;;;;;;;;;;10588948;27;20769;-83
2022/02/28 06:52:23;;;;;;;6.53;4.50;;;;;;;;;;10588902;28;20028;-83
2022/02/28 06:57:24;;;;;;;5.95;4.13;;;;;;;;;;10592621;28;20456;-82
2022/02/28 07:02:25;;;;;;;;;;;;;;;;;;10594012;28;20087;-83
2022/02/28 07:07:26;;;;;;;7.38;5.85;;;;;;;;;;10592212;28;20338;-83
2022/02/28 07:12:27;;;;;;;5.80;4.50;;;;;;;;;;10594891;28;20038;-84
2022/02/28 07:17:28;;;;;;;6.63;4.03;;;;;;;;;;10600013;28;20028;-84
2022/02/28 07:22:29;;;;;;;5.57;4.22;;;;;;;;;;10589462;28;20020;-83
2022/02/28 07:27:30;;;;;;;5.40;4.35;;;;;;;;;;10590402;28;20051;-83
2022/02/28 07:32:31;;;;;;;;;;;;;;;;;;10595415;28;20161;-82
2022/02/28 07:37:35;;;;;;;8.32;5.65;;;;;;;;;;10590316;28;19910;-83
2022/02/28 07:42:36;;;;;;;9.27;6.13;;;;;;;;;;10591181;28;20093;-83
2022/02/28 07:47:37;;;;;;;9.85;6.68;;;;;;;;;;10589027;28;20489;-82
2022/02/28 07:52:38;;;;;;;6.65;4.75;;;;;;;;;;10590271;28;20062;-84
2022/02/28 07:57:40;;;;;;;6.18;4.40;;;;;;;;;;10567663;28;20032;-83
2022/02/28 08:02:41;;;;;;;6.63;4.78;;;;;;;;;;10567870;28;20059;-82
2022/02/28 08:07:42;;;;;;;6.78;4.95;;;;;;;;;;10555361;28;20024;-82
2022/02/28 08:12:43;;;;;;;;;;;;;;;;;;10556836;28;20032;-82
2022/02/28 08:17:45;;;;;;;8.15;5.57;;;;;;;;;;10559735;28;20433;-82
2022/02/28 08:22:46;;;;;;;7.43;5.18;;;;;;;;;;10563285;28;20089;-80
2022/02/28 08:27:47;;;;;;;;;;;;;;;;;;10564502;28;20120;-82
2022/02/28 08:32:48;;;;;;;8.10;6.35;;;;;;;;;;10567960;28;19975;-81
2022/02/28 08:37:49;;;;;;;;;;;;;;;;;;10568926;28;20024;-81
2022/02/28 08:42:50;;;;;;;9.57;6.38;;;;;;;;;;10566479;28;19968;-82
2022/02/28 08:47:51;;;;;;;8.90;6.70;;;;;;;;;;10564585;28;20032;-80
2022/02/28 08:52:52;;;;;;;7.68;6.40;;;;;;;;;;10565671;28;20105;-82
2022/02/28 08:57:53;;;;;;;;;;;;;;;;;;10564536;28;20024;-81
2022/02/28 09:02:54;;;;;;;8.18;5.80;;;;;;;;;;10566288;28;19990;-81
2022/02/28 09:07:55;;;;;;;8.52;5.82;;;;;;;;;;10561155;28;20024;-82
2022/02/28 09:12:56;;;;;;;;;;;;;;;;;;10563237;28;20020;-81
2022/02/28 09:17:57;;;;;;;9.27;5.75;;;;;;;;;;10564549;28;20030;-82
2022/02/28 09:22:58;;;;;;;7.38;5.60;;;;;;;;;;10565692;28;20085;-83
2022/02/28 09:27:59;;;;;;;;;;;;;;;;;;10575061;28;20027;-82
2022/02/28 09:33:00;;;;;;;7.55;5.90;;;;;;;;;;10567092;28;19904;-82
2022/02/28 09:38:01;;;;;;;7.00;5.53;;;;;;;;;;10566753;28;20032;-83
2022/02/28 09:43:04;;;;;;;9.13;5.70;;;;;;;;;;10566397;28;20128;-82
2022/02/28 09:48:06;;;;;;;8.30;6.05;;;;;;;;;;10567281;28;20023;-80
2022/02/28 09:53:07;;;;;;;7.47;5.53;;;;;;;;;;10567641;28;20097;-82
2022/02/28 09:58:08;;;;;;;8.82;6.15;;;;;;;;;;10567027;28;20051;-82
2022/02/28 10:03:10;;;;;;;8.38;6.80;;;;;;;;;;10569349;28;20020;-82
2022/02/28 10:08:14;;;;;;;10.80;7.70;;;;;;;;;;10569166;28;20020;-81
2022/02/28 10:13:16;;;;;;;10.60;7.40;;;;;;;;;;10568737;28;20030;-81
2022/02/28 10:18:17;;;;;;;9.80;7.65;;;;;;;;;;10562544;28;20075;-80
2022/02/28 10:23:18;;;;;;;9.60;7.25;;;;;;;;;;10555423;28;20032;-81
2022/02/28 10:28:24;;;;;;;7.35;6.30;;;;;;;;;;10552207;28;20027;-82
2022/02/28 10:33:33;;;;;;;7.55;5.93;;;;;;;;;;10551395;28;20111;-84
2022/02/28 10:38:34;;;;;;;7.05;5.47;;;;;;;;;;10550213;28;20036;-84
2022/02/28 10:43:36;;;;;;;8.02;5.93;;;;;;;;;;10551616;28;20055;-84
2022/02/28 10:48:43;;;;;;;7.50;5.85;;;;;;;;;;10551410;28;20024;-84
2022/02/28 10:53:44;;;;;;;6.07;5.45;;;;;;;;;;10552011;28;20036;-83
2022/02/28 10:58:45;;;;;;;;;;;;;;;;;;10550646;28;20024;-84
2022/02/28 11:03:49;;;;;;;5.80;5.20;;;;;;;;;;10553701;28;20277;-84
2022/02/28 11:08:51;;;;;;;8.90;6.60;;;;;;;;;;10567253;28;20024;-83
2022/02/28 11:13:53;;;;;;;6.75;5.57;;;;;;;;;;10586139;28;20031;-82
2022/02/28 11:18:54;;;;;;;5.97;5.32;;;;;;;;;;10579539;28;20115;-80
2022/02/28 11:23:55;;;;;;;;;;;;;;;;;;10569352;28;20116;-80
2022/02/28 11:28:58;;;;;;;8.45;6.25;;;;;;;;;;10560414;28;19975;-80
2022/02/28 11:34:03;;;;;;;7.68;6.15;;;;;;;;;;10565489;28;20126;-80
2022/02/28 11:39:12;;;;;;;6.03;4.85;;;;;;;;;;10562621;28;20052;-80
2022/02/28 11:44:15;;;;;;;6.95;5.45;;;;;;;;;;10562077;28;20032;-79
2022/02/28 11:49:19;;;;;;;6.47;5.63;;;;;;;;;;10561285;28;20084;-80
2022/02/28 11:54:25;;;;;;;7.05;5.05;;;;;;;;;;10564091;28;20024;-81
2022/02/28 11:59:30;;;;;;;11.00;6.35;;;;;;;;;;10562258;28;20104;-80
2022/02/28 12:04:31;;;;;;;7.10;5.20;;;;;;;;;;10556500;28;20028;-79
2022/02/28 12:09:32;;;;;;;7.50;5.68;;;;;;;;;;10555717;28;20028;-78
2022/02/28 12:14:53;;;;;;;8.27;5.47;;;;;;;;;;10555180;28;20480;-78
2022/02/28 12:19:54;;;;;;;;;;;;;;;;;;10554496;28;20032;-78
2022/02/28 12:25:04;;;;;;;5.93;4.85;;;;;;;;;;10565678;28;19971;-77
2022/02/28 12:30:24;;;;;;;6.15;4.78;;;;;;;;;;10570001;28;20092;-77
2022/02/28 12:35:35;;;;;;;5.90;4.30;;;;;;;;;;10576632;28;20059;-79
2022/02/28 12:40:36;;;;;;;6.57;5.18;;;;;;;;;;10581415;28;20114;-81
2022/02/28 12:45:40;;;;;;;7.28;4.93;;;;;;;;;;10563952;28;20039;-80
2022/02/28 12:50:48;;;;;;;8.52;6.40;;;;;;;;;;10562628;28;20019;-80
2022/02/28 12:55:53;;;;;;;5.40;4.18;;;;;;;;;;10562143;28;20087;-81
2022/02/28 13:01:06;;;;;;;7.93;5.88;;;;;;;;;;10563339;28;20032;-81
2022/02/28 13:06:08;;;;;;;6.72;5.18;;;;;;;;;;10568328;28;20024;-81
2022/02/28 13:11:09;;;;;;;8.82;4.97;;;;;;;;;;10567865;28;20094;-81
2022/02/28 13:16:10;;;;;;;;;;;;;;;;;;10567410;28;20436;-81
2022/02/28 13:21:11;;;;;;;7.30;5.18;;;;;;;;;;10569367;28;19998;-81
2022/02/28 13:26:12;;;;;;;8.00;6.15;;;;;;;;;;10567832;28;20457;-81
2022/02/28 13:31:14;;;;;;;12.05;8.30;;;;;;;;;;10563185;28;20051;-81
2022/02/28 13:36:15;;;;;;;9.07;6.05;;;;;;;;;;10564420;28;20031;-80
2022/02/28 13:41:16;;;;;;;7.25;5.70;;;;;;;;;;10562337;28;20492;-81
2022/02/28 13:46:17;;;;;;;5.38;4.70;;;;;;;;;;10553775;28;20042;-81
2022/02/28 13:51:18;;;;;;;7.97;5.53;;;;;;;;;;10551314;28;20390;-83
2022/02/28 13:56:19;;;;;;;;;;;;;;;;;;10553434;28;20060;-82
2022/02/28 14:01:21;;;;;;;9.43;5.13;;;;;;;;;;10555832;28;19908;-83
2022/02/28 14:06:22;;;;;;;7.20;5.25;;;;;;;;;;10554057;28;20036;-81
2022/02/28 14:11:23;;;;;;;;;;;;;;;;;;10549599;28;20016;-83
2022/02/28 14:16:26;;;;;;;6.80;5.00;;;;;;;;;;10550319;28;19953;-82
2022/02/28 14:21:27;;;;;;;6.90;4.60;;;;;;;;;;10548383;28;20088;-83
2022/02/28 14:26:32;;;;;;;6.25;4.60;;;;;;;;;;10548171;28;20036;-83
2022/02/28 14:31:41;;;;;;;6.78;5.00;;;;;;;;;;10548228;28;20020;-82
2022/02/28 14:36:43;;;;;;;7.07;5.15;;;;;;;;;;10548283;28;20028;-82
2022/02/28 14:41:45;;;;;;;5.57;4.30;;;;;;;;;;10548738;28;20119;-82
2022/02/28 14:46:46;;;;;;;9.27;5.75;;;;;;;;;;10547470;28;20032;-80
2022/02/28 14:51:47;;;;;;;7.10;5.90;;;;;;;;;;10546486;28;20089;-81
2022/02/28 14:56:48;;;;;;;;;;;;;;;;;;10550007;28;20096;-82
2022/02/28 15:01:49;;;;;;;;;;;;;;;;;;10549019;28;19990;-84
2022/02/28 15:06:50;;;;;;;;;;;;;;;;;;10553221;28;19908;-81
2022/02/28 15:11:52;;;;;;;;;;;;;;;;;;10556410;28;20358;-84
2022/02/28 15:16:53;;;;;;;;;;;;;;;;;;10559236;28;19904;-82
2022/02/28 15:21:54;;;;;;;;;;;;;;;;;;10556351;28;20378;-83
2022/02/28 15:26:55;;;;;;;;;;;;;;;;;;10556225;28;19907;-83
2022/02/28 15:31:56;;;;;;;;;;;;;;;;;;10555380;28;19927;-83
2022/02/28 15:36:57;;;;;;;;;;;;;;;;;;10559491;28;19904;-82
2022/02/28 15:41:58;;;;;;;;;;;;;;;;;;10574906;28;19976;-82
2022/02/28 15:46:59;;;;;;;;;;;;;;;;;;10572436;28;19983;-82
2022/02/28 15:52:00;;;;;;;;;;;;;;;;;;10575578;28;19975;-82
2022/02/28 15:57:02;;;;;;;;;;;;;;;;;;10566053;28;19952;-82
2022/02/28 16:02:03;;;;;;;;;;;;;;;;;;10571125;28;19904;-82
2022/02/28 16:07:03;;;;;;;;;;;;;;;;;;10573672;28;19908;-82
2022/02/28 16:12:04;;;;;;;;;;;;;;;;;;10569123;28;19999;-83
2022/02/28 16:17:05;;;;;;;;;;;;;;;;;;10563269;28;19963;-81
2022/02/28 16:22:06;;;;;;;;;;;;;;;;;;10572329;28;20451;-79
2022/02/28 16:27:07;;;;;;;;;;;;;;;;;;10569698;28;19995;-81
2022/02/28 16:32:08;;;;;;;;;;;;;;;;;;10566919;28;19908;-81
2022/02/28 16:37:09;;;;;;;;;;;;;;;;;;10558349;28;19968;-81
2022/02/28 16:42:10;;;;;;;;;;;;;;;;;;10565340;28;20042;-81
2022/02/28 16:47:11;;;;;;;;;;;;;;;;;;10567981;28;20002;-80
2022/02/28 16:52:12;;;;;;;;;;;;;;;;;;10569884;28;19969;-81
2022/02/28 16:57:14;;;;;;;;;;;;;;;;;;10573470;28;20337;-81
2022/02/28 17:02:15;;;;;;;;;;;;;;;;;;10572976;28;19904;-81
2022/02/28 17:07:16;;;;;;;;;;;;;;;;;;10558967;28;20300;-81
2022/02/28 17:12:17;;;;;;;;;;;;;;;;;;10571739;28;19944;-82
2022/02/28 17:17:18;;;;;;;;;;;;;;;;;;10562611;28;19975;-84
2022/02/28 17:22:34;;;;;;;;;;;;;;;;;;10575258;28;19904;-85
2022/02/28 17:38:01;;;;;;;;;;;;;;;;;;10448910;28;19905;-85
2022/02/28 17:43:04;;;;;;;;;;;;;;;;;;10475654;28;19908;-85
2022/02/28 17:53:46;;;;;;;;;;;;;;;;;;10487092;28;20343;-85
2022/02/28 17:59:03;;;;;;;;;;;;;;;;;;10480836;28;19951;-85
2022/02/28 18:04:11;;;;;;;;;;;;;;;;;;10494761;28;19893;-85
2022/02/28 18:09:13;;;;;;;;;;;;;;;;;;10471327;28;19916;-84
2022/02/28 18:14:14;;;;;;;;;;;;;;;;;;10479553;28;19904;-87
2022/02/28 18:19:25;;;;;;;;;;;;;;;;;;10488131;28;19912;-85
2022/02/28 18:24:26;;;;;;;;;;;;;;;;;;10471765;28;20393;-84
